Rechercher aéroport 
image banner adimage banner adimage banner ad
image banner ad

PS41 - Upmc-Horizon Hospital/Shenango Campus

Situé à Farrell, United States

ICAO - PS41, IATA -

Données fournies par Airmate  

Information générale

Coordonnées: N41°12'35" W80°28'8"
Élévation : 1121 feet MSL.
Variation magnétique : -09° East
Voir autres Aéroports à Pennsylvania

Données opérationnelles

Special qualification required
Heure actuelle UTC:
Heure actuelle locale:
Météo à : KYNG - Youngstown-Warren Rgnl ( 19 km )
METAR: KYNG 150551Z 27004KT 10SM FEW250 13/12 A2991 RMK AO2 SLP127 T01330122 10206 20133 51004 $
TAF: KYNG 150535Z 1506/1606 00000KT P6SM BKN250 FM151300 31008KT P6SM SCT250 FM151500 33010G20KT P6SM SCT060 FM160200 32006KT P6SM FEW250
Voir NOTAMs / SUP AIP / TFR affectant cet aéroport [VIEW]
Fréquences de communication: [VIEW]

Pistes:

Coordonnées de l'aéroport

Adresse: Farrell United States

Vue satellite de PS41